sensor_id;sensor_type;location;lat;lon;timestamp;P1;durP1;ratioP1;P2;durP2;ratioP2
65825;SDS011;52586;-43.152;172.732;2022-09-30T00:02:05;2.67;;;1.85;;
65825;SDS011;52586;-43.152;172.732;2022-09-30T00:04:37;2.95;;;1.67;;
65825;SDS011;52586;-43.152;172.732;2022-09-30T00:07:08;2.58;;;1.80;;
65825;SDS011;52586;-43.152;172.732;2022-09-30T00:09:38;2.72;;;1.92;;
65825;SDS011;52586;-43.152;172.732;2022-09-30T00:12:09;3.05;;;1.80;;
65825;SDS011;52586;-43.152;172.732;2022-09-30T00:14:40;2.75;;;1.73;;
65825;SDS011;52586;-43.152;172.732;2022-09-30T00:17:12;4.80;;;2.00;;
65825;SDS011;52586;-43.152;172.732;2022-09-30T00:19:43;3.92;;;2.00;;
65825;SDS011;52586;-43.152;172.732;2022-09-30T00:22:14;4.70;;;2.38;;
65825;SDS011;52586;-43.152;172.732;2022-09-30T00:24:45;3.50;;;2.03;;
65825;SDS011;52586;-43.152;172.732;2022-09-30T00:27:16;3.28;;;1.70;;
65825;SDS011;52586;-43.152;172.732;2022-09-30T00:29:46;3.17;;;1.80;;
65825;SDS011;52586;-43.152;172.732;2022-09-30T00:32:19;4.50;;;2.03;;
65825;SDS011;52586;-43.152;172.732;2022-09-30T00:34:50;3.80;;;2.38;;
65825;SDS011;52586;-43.152;172.732;2022-09-30T00:37:20;3.70;;;2.20;;
65825;SDS011;52586;-43.152;172.732;2022-09-30T00:39:51;2.75;;;2.13;;
65825;SDS011;52586;-43.152;172.732;2022-09-30T00:42:22;3.10;;;2.15;;
65825;SDS011;52586;-43.152;172.732;2022-09-30T00:44:55;4.10;;;2.10;;
65825;SDS011;52586;-43.152;172.732;2022-09-30T00:47:36;3.70;;;2.05;;
65825;SDS011;52586;-43.152;172.732;2022-09-30T00:50:18;2.95;;;1.90;;
65825;SDS011;52586;-43.152;172.732;2022-09-30T00:53:07;2.90;;;1.98;;
65825;SDS011;52586;-43.152;172.732;2022-09-30T00:55:46;2.72;;;1.67;;
65825;SDS011;52586;-43.152;172.732;2022-09-30T00:58:23;3.92;;;1.98;;
65825;SDS011;52586;-43.152;172.732;2022-09-30T01:00:58;2.65;;;2.10;;
65825;SDS011;52586;-43.152;172.732;2022-09-30T01:03:32;3.30;;;1.90;;
65825;SDS011;52586;-43.152;172.732;2022-09-30T01:06:06;3.42;;;1.83;;
65825;SDS011;52586;-43.152;172.732;2022-09-30T01:08:37;2.65;;;1.92;;
65825;SDS011;52586;-43.152;172.732;2022-09-30T01:11:08;2.35;;;1.75;;
65825;SDS011;52586;-43.152;172.732;2022-09-30T01:13:39;2.70;;;1.80;;
65825;SDS011;52586;-43.152;172.732;2022-09-30T01:16:17;2.63;;;1.88;;
65825;SDS011;52586;-43.152;172.732;2022-09-30T01:19:09;3.85;;;2.20;;
65825;SDS011;52586;-43.152;172.732;2022-09-30T01:22:04;2.70;;;1.85;;
65825;SDS011;52586;-43.152;172.732;2022-09-30T01:25:12;3.40;;;2.25;;
65825;SDS011;52586;-43.152;172.732;2022-09-30T01:28:07;2.95;;;2.28;;
65825;SDS011;52586;-43.152;172.732;2022-09-30T01:31:00;4.30;;;2.08;;
65825;SDS011;52586;-43.152;172.732;2022-09-30T01:33:42;3.75;;;2.05;;
65825;SDS011;52586;-43.152;172.732;2022-09-30T01:36:19;2.33;;;1.80;;
65825;SDS011;52586;-43.152;172.732;2022-09-30T01:39:01;3.22;;;2.10;;
65825;SDS011;52586;-43.152;172.732;2022-09-30T01:41:41;3.17;;;1.83;;
65825;SDS011;52586;-43.152;172.732;2022-09-30T01:44:22;2.65;;;2.05;;
65825;SDS011;52586;-43.152;172.732;2022-09-30T01:47:05;2.80;;;2.05;;
65825;SDS011;52586;-43.152;172.732;2022-09-30T01:49:40;4.80;;;2.05;;
65825;SDS011;52586;-43.152;172.732;2022-09-30T01:52:15;3.10;;;1.92;;
65825;SDS011;52586;-43.152;172.732;2022-09-30T01:54:51;2.78;;;2.08;;
65825;SDS011;52586;-43.152;172.732;2022-09-30T01:57:29;4.03;;;2.17;;
65825;SDS011;52586;-43.152;172.732;2022-09-30T02:00:08;3.70;;;2.17;;
65825;SDS011;52586;-43.152;172.732;2022-09-30T02:02:43;3.63;;;2.28;;
65825;SDS011;52586;-43.152;172.732;2022-09-30T02:05:19;3.53;;;2.42;;
65825;SDS011;52586;-43.152;172.732;2022-09-30T02:07:54;2.40;;;2.08;;
65825;SDS011;52586;-43.152;172.732;2022-09-30T02:10:27;2.90;;;1.98;;
65825;SDS011;52586;-43.152;172.732;2022-09-30T02:13:02;4.03;;;2.00;;
65825;SDS011;52586;-43.152;172.732;2022-09-30T02:15:37;3.17;;;2.30;;
65825;SDS011;52586;-43.152;172.732;2022-09-30T02:18:14;2.67;;;2.15;;
65825;SDS011;52586;-43.152;172.732;2022-09-30T02:20:50;3.13;;;2.28;;
65825;SDS011;52586;-43.152;172.732;2022-09-30T02:23:25;3.08;;;1.90;;
65825;SDS011;52586;-43.152;172.732;2022-09-30T02:26:00;2.47;;;1.75;;
65825;SDS011;52586;-43.152;172.732;2022-09-30T02:28:33;2.58;;;2.03;;
65825;SDS011;52586;-43.152;172.732;2022-09-30T02:31:09;3.75;;;2.30;;
65825;SDS011;52586;-43.152;172.732;2022-09-30T02:33:45;3.35;;;2.20;;
65825;SDS011;52586;-43.152;172.732;2022-09-30T02:36:23;2.78;;;2.03;;
65825;SDS011;52586;-43.152;172.732;2022-09-30T02:38:59;3.15;;;1.90;;
65825;SDS011;52586;-43.152;172.732;2022-09-30T02:41:33;2.70;;;1.95;;
65825;SDS011;52586;-43.152;172.732;2022-09-30T02:44:12;2.53;;;1.90;;
65825;SDS011;52586;-43.152;172.732;2022-09-30T02:46:46;3.53;;;2.00;;
65825;SDS011;52586;-43.152;172.732;2022-09-30T02:49:25;3.10;;;1.80;;
65825;SDS011;52586;-43.152;172.732;2022-09-30T02:52:04;3.45;;;2.08;;
65825;SDS011;52586;-43.152;172.732;2022-09-30T02:54:43;2.10;;;1.55;;
65825;SDS011;52586;-43.152;172.732;2022-09-30T02:57:21;2.40;;;1.75;;
65825;SDS011;52586;-43.152;172.732;2022-09-30T03:00:01;1.88;;;1.67;;
65825;SDS011;52586;-43.152;172.732;2022-09-30T03:02:33;3.25;;;2.03;;
65825;SDS011;52586;-43.152;172.732;2022-09-30T03:05:07;2.42;;;1.75;;
65825;SDS011;52586;-43.152;172.732;2022-09-30T03:07:38;2.40;;;1.92;;
65825;SDS011;52586;-43.152;172.732;2022-09-30T03:10:12;2.20;;;1.70;;
65825;SDS011;52586;-43.152;172.732;2022-09-30T03:12:49;2.75;;;1.70;;
65825;SDS011;52586;-43.152;172.732;2022-09-30T03:15:36;1.90;;;1.60;;
65825;SDS011;52586;-43.152;172.732;2022-09-30T03:18:26;2.83;;;1.95;;
65825;SDS011;52586;-43.152;172.732;2022-09-30T03:21:23;1.75;;;1.65;;
65825;SDS011;52586;-43.152;172.732;2022-09-30T03:27:08;2.22;;;1.85;;
65825;SDS011;52586;-43.152;172.732;2022-09-30T03:29:46;1.98;;;1.70;;
65825;SDS011;52586;-43.152;172.732;2022-09-30T03:32:27;1.60;;;1.50;;
65825;SDS011;52586;-43.152;172.732;2022-09-30T03:35:11;2.72;;;1.88;;
65825;SDS011;52586;-43.152;172.732;2022-09-30T03:37:54;1.77;;;1.60;;
65825;SDS011;52586;-43.152;172.732;2022-09-30T03:40:29;2.00;;;1.65;;
65825;SDS011;52586;-43.152;172.732;2022-09-30T03:43:08;2.45;;;1.63;;
65825;SDS011;52586;-43.152;172.732;2022-09-30T03:45:49;1.92;;;1.70;;
65825;SDS011;52586;-43.152;172.732;2022-09-30T03:48:22;2.70;;;1.80;;
65825;SDS011;52586;-43.152;172.732;2022-09-30T03:50:55;2.38;;;1.77;;
65825;SDS011;52586;-43.152;172.732;2022-09-30T03:53:31;1.77;;;1.50;;
65825;SDS011;52586;-43.152;172.732;2022-09-30T03:56:07;2.17;;;1.95;;
65825;SDS011;52586;-43.152;172.732;2022-09-30T03:58:39;2.50;;;1.67;;
65825;SDS011;52586;-43.152;172.732;2022-09-30T04:01:16;2.90;;;2.13;;
65825;SDS011;52586;-43.152;172.732;2022-09-30T04:03:47;1.80;;;1.52;;
65825;SDS011;52586;-43.152;172.732;2022-09-30T04:06:19;3.28;;;2.25;;
65825;SDS011;52586;-43.152;172.732;2022-09-30T04:08:53;2.92;;;2.00;;
65825;SDS011;52586;-43.152;172.732;2022-09-30T04:11:23;3.63;;;2.00;;
65825;SDS011;52586;-43.152;172.732;2022-09-30T04:13:54;2.05;;;1.80;;
65825;SDS011;52586;-43.152;172.732;2022-09-30T04:16:28;2.65;;;1.88;;
65825;SDS011;52586;-43.152;172.732;2022-09-30T04:18:58;2.20;;;2.00;;
65825;SDS011;52586;-43.152;172.732;2022-09-30T04:21:29;2.38;;;2.00;;
65825;SDS011;52586;-43.152;172.732;2022-09-30T04:24:02;3.25;;;2.05;;
65825;SDS011;52586;-43.152;172.732;2022-09-30T04:26:33;2.78;;;2.00;;
65825;SDS011;52586;-43.152;172.732;2022-09-30T04:29:03;3.00;;;2.20;;
65825;SDS011;52586;-43.152;172.732;2022-09-30T04:31:34;3.85;;;2.60;;
65825;SDS011;52586;-43.152;172.732;2022-09-30T04:34:05;6.10;;;2.72;;
65825;SDS011;52586;-43.152;172.732;2022-09-30T04:36:37;3.60;;;2.75;;
65825;SDS011;52586;-43.152;172.732;2022-09-30T04:39:10;4.00;;;2.47;;
65825;SDS011;52586;-43.152;172.732;2022-09-30T04:41:41;3.58;;;2.25;;
65825;SDS011;52586;-43.152;172.732;2022-09-30T04:44:12;4.07;;;2.60;;
65825;SDS011;52586;-43.152;172.732;2022-09-30T04:46:42;4.40;;;2.65;;
65825;SDS011;52586;-43.152;172.732;2022-09-30T04:49:13;4.25;;;2.50;;
65825;SDS011;52586;-43.152;172.732;2022-09-30T04:51:44;4.78;;;2.70;;
65825;SDS011;52586;-43.152;172.732;2022-09-30T04:54:17;3.58;;;2.60;;
65825;SDS011;52586;-43.152;172.732;2022-09-30T04:56:47;3.03;;;2.33;;
65825;SDS011;52586;-43.152;172.732;2022-09-30T04:59:18;3.95;;;2.47;;
65825;SDS011;52586;-43.152;172.732;2022-09-30T05:01:49;3.00;;;1.90;;
65825;SDS011;52586;-43.152;172.732;2022-09-30T05:04:20;3.42;;;2.28;;
65825;SDS011;52586;-43.152;172.732;2022-09-30T05:06:50;2.97;;;2.55;;
65825;SDS011;52586;-43.152;172.732;2022-09-30T05:09:23;3.28;;;2.83;;
65825;SDS011;52586;-43.152;172.732;2022-09-30T05:11:54;3.90;;;2.65;;
65825;SDS011;52586;-43.152;172.732;2022-09-30T05:14:25;3.65;;;2.55;;
65825;SDS011;52586;-43.152;172.732;2022-09-30T05:16:56;4.75;;;2.50;;
65825;SDS011;52586;-43.152;172.732;2022-09-30T05:19:27;2.60;;;2.10;;
65825;SDS011;52586;-43.152;172.732;2022-09-30T05:21:58;3.00;;;2.70;;
65825;SDS011;52586;-43.152;172.732;2022-09-30T05:24:31;4.80;;;2.50;;
65825;SDS011;52586;-43.152;172.732;2022-09-30T05:27:01;3.47;;;2.30;;
65825;SDS011;52586;-43.152;172.732;2022-09-30T05:29:32;2.70;;;2.20;;
65825;SDS011;52586;-43.152;172.732;2022-09-30T05:32:03;3.75;;;2.40;;
65825;SDS011;52586;-43.152;172.732;2022-09-30T05:34:35;3.50;;;2.35;;
65825;SDS011;52586;-43.152;172.732;2022-09-30T05:37:05;4.93;;;2.47;;
65825;SDS011;52586;-43.152;172.732;2022-09-30T05:39:39;3.90;;;2.28;;
65825;SDS011;52586;-43.152;172.732;2022-09-30T05:42:10;3.10;;;2.22;;
65825;SDS011;52586;-43.152;172.732;2022-09-30T05:44:40;2.92;;;2.20;;
65825;SDS011;52586;-43.152;172.732;2022-09-30T05:47:11;3.08;;;2.28;;
65825;SDS011;52586;-43.152;172.732;2022-09-30T05:49:42;2.78;;;2.38;;
65825;SDS011;52586;-43.152;172.732;2022-09-30T05:52:13;4.32;;;2.40;;
65825;SDS011;52586;-43.152;172.732;2022-09-30T05:54:45;3.38;;;2.55;;
65825;SDS011;52586;-43.152;172.732;2022-09-30T05:57:16;3.10;;;2.35;;
65825;SDS011;52586;-43.152;172.732;2022-09-30T05:59:47;4.18;;;2.38;;
65825;SDS011;52586;-43.152;172.732;2022-09-30T06:02:18;3.08;;;2.40;;
65825;SDS011;52586;-43.152;172.732;2022-09-30T06:04:49;3.50;;;2.67;;
65825;SDS011;52586;-43.152;172.732;2022-09-30T06:07:20;4.47;;;2.38;;
65825;SDS011;52586;-43.152;172.732;2022-09-30T06:09:52;3.22;;;2.30;;
65825;SDS011;52586;-43.152;172.732;2022-09-30T06:12:23;3.97;;;2.80;;
65825;SDS011;52586;-43.152;172.732;2022-09-30T06:14:54;2.92;;;2.20;;
65825;SDS011;52586;-43.152;172.732;2022-09-30T06:17:25;3.95;;;2.42;;
65825;SDS011;52586;-43.152;172.732;2022-09-30T06:19:59;3.70;;;2.53;;
65825;SDS011;52586;-43.152;172.732;2022-09-30T06:22:32;4.07;;;2.72;;
65825;SDS011;52586;-43.152;172.732;2022-09-30T06:25:05;2.72;;;2.42;;
65825;SDS011;52586;-43.152;172.732;2022-09-30T06:27:36;3.83;;;3.00;;
65825;SDS011;52586;-43.152;172.732;2022-09-30T06:30:07;3.28;;;2.28;;
65825;SDS011;52586;-43.152;172.732;2022-09-30T06:32:38;3.65;;;2.47;;
65825;SDS011;52586;-43.152;172.732;2022-09-30T06:35:10;4.03;;;2.60;;
65825;SDS011;52586;-43.152;172.732;2022-09-30T06:37:41;3.60;;;2.50;;
65825;SDS011;52586;-43.152;172.732;2022-09-30T06:40:15;4.85;;;2.70;;
65825;SDS011;52586;-43.152;172.732;2022-09-30T06:42:47;4.18;;;2.63;;
65825;SDS011;52586;-43.152;172.732;2022-09-30T06:45:17;3.35;;;2.58;;
65825;SDS011;52586;-43.152;172.732;2022-09-30T06:47:48;3.58;;;2.60;;
65825;SDS011;52586;-43.152;172.732;2022-09-30T06:50:19;3.20;;;2.35;;
65825;SDS011;52586;-43.152;172.732;2022-09-30T06:52:50;3.80;;;2.67;;
65825;SDS011;52586;-43.152;172.732;2022-09-30T06:55:27;3.42;;;2.90;;
65825;SDS011;52586;-43.152;172.732;2022-09-30T06:57:58;3.85;;;2.40;;
65825;SDS011;52586;-43.152;172.732;2022-09-30T07:00:28;3.22;;;2.67;;
65825;SDS011;52586;-43.152;172.732;2022-09-30T07:02:59;2.67;;;2.17;;
65825;SDS011;52586;-43.152;172.732;2022-09-30T07:05:31;3.05;;;2.38;;
65825;SDS011;52586;-43.152;172.732;2022-09-30T07:08:01;3.17;;;2.53;;
65825;SDS011;52586;-43.152;172.732;2022-09-30T07:10:36;4.55;;;2.70;;
65825;SDS011;52586;-43.152;172.732;2022-09-30T07:13:06;3.78;;;2.65;;
65825;SDS011;52586;-43.152;172.732;2022-09-30T07:15:37;2.95;;;2.30;;
65825;SDS011;52586;-43.152;172.732;2022-09-30T07:18:10;3.45;;;2.60;;
65825;SDS011;52586;-43.152;172.732;2022-09-30T07:20:41;4.28;;;2.65;;
65825;SDS011;52586;-43.152;172.732;2022-09-30T07:23:17;3.42;;;2.28;;
65825;SDS011;52586;-43.152;172.732;2022-09-30T07:25:51;3.92;;;2.47;;
65825;SDS011;52586;-43.152;172.732;2022-09-30T07:28:24;3.22;;;2.50;;
65825;SDS011;52586;-43.152;172.732;2022-09-30T07:30:56;3.13;;;2.40;;
65825;SDS011;52586;-43.152;172.732;2022-09-30T07:33:28;3.40;;;2.35;;
65825;SDS011;52586;-43.152;172.732;2022-09-30T07:35:59;3.13;;;2.30;;
65825;SDS011;52586;-43.152;172.732;2022-09-30T07:38:34;4.68;;;2.67;;
65825;SDS011;52586;-43.152;172.732;2022-09-30T07:41:09;2.97;;;2.30;;
65825;SDS011;52586;-43.152;172.732;2022-09-30T07:43:42;3.38;;;2.63;;
65825;SDS011;52586;-43.152;172.732;2022-09-30T07:46:14;2.85;;;2.30;;
65825;SDS011;52586;-43.152;172.732;2022-09-30T07:48:49;3.95;;;2.58;;
65825;SDS011;52586;-43.152;172.732;2022-09-30T07:51:23;2.72;;;2.30;;
65825;SDS011;52586;-43.152;172.732;2022-09-30T07:53:56;2.67;;;2.25;;
65825;SDS011;52586;-43.152;172.732;2022-09-30T07:56:30;2.58;;;2.30;;
65825;SDS011;52586;-43.152;172.732;2022-09-30T07:59:03;3.25;;;2.50;;
65825;SDS011;52586;-43.152;172.732;2022-09-30T08:01:34;3.35;;;2.50;;
65825;SDS011;52586;-43.152;172.732;2022-09-30T08:04:07;2.40;;;2.20;;
65825;SDS011;52586;-43.152;172.732;2022-09-30T08:06:39;2.58;;;2.10;;
65825;SDS011;52586;-43.152;172.732;2022-09-30T08:09:12;2.88;;;2.20;;
65825;SDS011;52586;-43.152;172.732;2022-09-30T08:11:46;3.67;;;2.30;;
65825;SDS011;52586;-43.152;172.732;2022-09-30T08:14:17;3.47;;;2.50;;
65825;SDS011;52586;-43.152;172.732;2022-09-30T08:16:50;3.28;;;2.10;;
65825;SDS011;52586;-43.152;172.732;2022-09-30T08:19:23;3.00;;;2.40;;
65825;SDS011;52586;-43.152;172.732;2022-09-30T08:21:55;3.28;;;2.33;;
65825;SDS011;52586;-43.152;172.732;2022-09-30T08:24:26;3.47;;;2.22;;
65825;SDS011;52586;-43.152;172.732;2022-09-30T08:26:58;4.00;;;2.58;;
65825;SDS011;52586;-43.152;172.732;2022-09-30T08:29:29;3.20;;;2.50;;
65825;SDS011;52586;-43.152;172.732;2022-09-30T08:32:00;5.05;;;2.83;;
65825;SDS011;52586;-43.152;172.732;2022-09-30T08:34:31;3.20;;;2.10;;
65825;SDS011;52586;-43.152;172.732;2022-09-30T08:37:02;3.65;;;2.92;;
65825;SDS011;52586;-43.152;172.732;2022-09-30T08:39:33;2.42;;;2.00;;
65825;SDS011;52586;-43.152;172.732;2022-09-30T08:42:13;3.63;;;2.50;;
65825;SDS011;52586;-43.152;172.732;2022-09-30T08:44:54;3.80;;;2.42;;
65825;SDS011;52586;-43.152;172.732;2022-09-30T08:47:41;3.58;;;2.25;;
65825;SDS011;52586;-43.152;172.732;2022-09-30T08:50:18;2.47;;;2.28;;
65825;SDS011;52586;-43.152;172.732;2022-09-30T08:52:57;3.38;;;2.45;;
65825;SDS011;52586;-43.152;172.732;2022-09-30T08:55:32;2.60;;;2.15;;
65825;SDS011;52586;-43.152;172.732;2022-09-30T08:58:13;2.80;;;2.45;;
65825;SDS011;52586;-43.152;172.732;2022-09-30T09:00:50;2.97;;;2.58;;
65825;SDS011;52586;-43.152;172.732;2022-09-30T09:03:30;3.65;;;2.45;;
65825;SDS011;52586;-43.152;172.732;2022-09-30T09:06:04;2.55;;;2.30;;
65825;SDS011;52586;-43.152;172.732;2022-09-30T09:08:56;2.58;;;2.38;;
65825;SDS011;52586;-43.152;172.732;2022-09-30T09:11:47;2.60;;;2.40;;
65825;SDS011;52586;-43.152;172.732;2022-09-30T09:14:38;3.38;;;2.38;;
65825;SDS011;52586;-43.152;172.732;2022-09-30T09:17:22;3.15;;;2.50;;
65825;SDS011;52586;-43.152;172.732;2022-09-30T09:20:06;3.47;;;2.30;;
65825;SDS011;52586;-43.152;172.732;2022-09-30T09:22:41;3.25;;;2.10;;
65825;SDS011;52586;-43.152;172.732;2022-09-30T09:25:14;2.17;;;1.98;;
65825;SDS011;52586;-43.152;172.732;2022-09-30T09:27:48;3.83;;;2.38;;
65825;SDS011;52586;-43.152;172.732;2022-09-30T09:30:24;3.08;;;2.33;;
65825;SDS011;52586;-43.152;172.732;2022-09-30T09:32:57;2.58;;;2.13;;
65825;SDS011;52586;-43.152;172.732;2022-09-30T09:35:32;3.60;;;2.20;;
65825;SDS011;52586;-43.152;172.732;2022-09-30T09:38:12;3.50;;;2.40;;
65825;SDS011;52586;-43.152;172.732;2022-09-30T09:41:01;4.50;;;2.60;;
65825;SDS011;52586;-43.152;172.732;2022-09-30T09:43:44;4.10;;;3.10;;
65825;SDS011;52586;-43.152;172.732;2022-09-30T09:46:23;4.07;;;2.60;;
65825;SDS011;52586;-43.152;172.732;2022-09-30T09:55:08;3.80;;;3.08;;
65825;SDS011;52586;-43.152;172.732;2022-09-30T09:57:40;3.50;;;2.65;;
65825;SDS011;52586;-43.152;172.732;2022-09-30T10:00:10;3.60;;;2.65;;
65825;SDS011;52586;-43.152;172.732;2022-09-30T10:03:21;3.60;;;2.83;;
65825;SDS011;52586;-43.152;172.732;2022-09-30T10:06:01;4.55;;;2.85;;
65825;SDS011;52586;-43.152;172.732;2022-09-30T10:08:34;4.60;;;2.75;;
65825;SDS011;52586;-43.152;172.732;2022-09-30T10:11:06;4.00;;;2.85;;
65825;SDS011;52586;-43.152;172.732;2022-09-30T10:13:48;3.53;;;2.63;;
65825;SDS011;52586;-43.152;172.732;2022-09-30T10:16:29;4.53;;;2.80;;
65825;SDS011;52586;-43.152;172.732;2022-09-30T10:19:04;3.67;;;2.95;;
65825;SDS011;52586;-43.152;172.732;2022-09-30T10:21:47;4.35;;;3.15;;
65825;SDS011;52586;-43.152;172.732;2022-09-30T10:24:19;2.88;;;2.53;;
65825;SDS011;52586;-43.152;172.732;2022-09-30T10:26:56;4.72;;;2.83;;
65825;SDS011;52586;-43.152;172.732;2022-09-30T10:29:27;3.33;;;2.80;;
65825;SDS011;52586;-43.152;172.732;2022-09-30T10:32:00;4.60;;;2.72;;
65825;SDS011;52586;-43.152;172.732;2022-09-30T10:34:36;3.22;;;2.45;;
65825;SDS011;52586;-43.152;172.732;2022-09-30T10:37:09;3.15;;;2.47;;
65825;SDS011;52586;-43.152;172.732;2022-09-30T10:39:43;2.95;;;2.30;;
65825;SDS011;52586;-43.152;172.732;2022-09-30T10:42:24;3.75;;;2.72;;
65825;SDS011;52586;-43.152;172.732;2022-09-30T10:44:57;3.22;;;2.85;;
65825;SDS011;52586;-43.152;172.732;2022-09-30T10:47:31;3.50;;;2.53;;
65825;SDS011;52586;-43.152;172.732;2022-09-30T10:50:05;3.80;;;2.63;;
65825;SDS011;52586;-43.152;172.732;2022-09-30T10:52:45;2.83;;;2.63;;
65825;SDS011;52586;-43.152;172.732;2022-09-30T10:55:25;3.53;;;2.38;;
65825;SDS011;52586;-43.152;172.732;2022-09-30T10:58:08;4.30;;;2.85;;
65825;SDS011;52586;-43.152;172.732;2022-09-30T11:01:05;3.00;;;2.60;;
65825;SDS011;52586;-43.152;172.732;2022-09-30T11:03:47;3.05;;;2.55;;
65825;SDS011;52586;-43.152;172.732;2022-09-30T11:06:30;3.50;;;2.53;;
65825;SDS011;52586;-43.152;172.732;2022-09-30T11:09:04;4.72;;;2.70;;
65825;SDS011;52586;-43.152;172.732;2022-09-30T11:11:40;3.28;;;2.50;;
65825;SDS011;52586;-43.152;172.732;2022-09-30T11:14:16;3.60;;;2.83;;
65825;SDS011;52586;-43.152;172.732;2022-09-30T11:16:56;3.38;;;2.50;;
65825;SDS011;52586;-43.152;172.732;2022-09-30T11:19:40;3.33;;;2.67;;
65825;SDS011;52586;-43.152;172.732;2022-09-30T11:22:25;3.50;;;2.85;;
65825;SDS011;52586;-43.152;172.732;2022-09-30T11:25:01;4.28;;;3.15;;
65825;SDS011;52586;-43.152;172.732;2022-09-30T11:27:39;3.17;;;2.60;;
65825;SDS011;52586;-43.152;172.732;2022-09-30T11:30:23;2.92;;;2.53;;
65825;SDS011;52586;-43.152;172.732;2022-09-30T11:33:02;3.72;;;2.63;;
65825;SDS011;52586;-43.152;172.732;2022-09-30T11:35:45;3.42;;;2.40;;
65825;SDS011;52586;-43.152;172.732;2022-09-30T11:38:31;3.85;;;2.58;;
65825;SDS011;52586;-43.152;172.732;2022-09-30T11:41:18;3.42;;;2.83;;
65825;SDS011;52586;-43.152;172.732;2022-09-30T11:43:56;3.15;;;2.60;;
65825;SDS011;52586;-43.152;172.732;2022-09-30T11:46:45;3.78;;;2.60;;
65825;SDS011;52586;-43.152;172.732;2022-09-30T11:49:31;4.18;;;2.58;;
65825;SDS011;52586;-43.152;172.732;2022-09-30T11:52:22;3.20;;;2.90;;
65825;SDS011;52586;-43.152;172.732;2022-09-30T11:55:05;3.50;;;2.50;;
65825;SDS011;52586;-43.152;172.732;2022-09-30T11:57:55;3.20;;;2.72;;
65825;SDS011;52586;-43.152;172.732;2022-09-30T12:00:30;4.18;;;2.80;;
65825;SDS011;52586;-43.152;172.732;2022-09-30T12:03:05;3.78;;;2.90;;
65825;SDS011;52586;-43.152;172.732;2022-09-30T12:05:40;3.20;;;2.58;;
65825;SDS011;52586;-43.152;172.732;2022-09-30T12:08:13;3.47;;;2.60;;
65825;SDS011;52586;-43.152;172.732;2022-09-30T12:10:50;3.92;;;2.40;;
65825;SDS011;52586;-43.152;172.732;2022-09-30T12:13:24;3.42;;;2.75;;
65825;SDS011;52586;-43.152;172.732;2022-09-30T12:15:57;3.75;;;2.55;;
65825;SDS011;52586;-43.152;172.732;2022-09-30T12:18:30;3.97;;;2.60;;
65825;SDS011;52586;-43.152;172.732;2022-09-30T12:21:08;3.83;;;2.60;;
65825;SDS011;52586;-43.152;172.732;2022-09-30T12:23:45;3.20;;;2.33;;
65825;SDS011;52586;-43.152;172.732;2022-09-30T12:26:25;3.58;;;2.65;;
65825;SDS011;52586;-43.152;172.732;2022-09-30T12:28:56;3.75;;;2.97;;
65825;SDS011;52586;-43.152;172.732;2022-09-30T12:31:54;3.45;;;2.40;;
65825;SDS011;52586;-43.152;172.732;2022-09-30T12:34:45;3.47;;;3.00;;
65825;SDS011;52586;-43.152;172.732;2022-09-30T12:40:28;3.22;;;2.55;;
65825;SDS011;52586;-43.152;172.732;2022-09-30T12:43:19;3.28;;;2.53;;
65825;SDS011;52586;-43.152;172.732;2022-09-30T12:46:09;3.50;;;2.58;;
65825;SDS011;52586;-43.152;172.732;2022-09-30T12:48:45;3.75;;;2.60;;
65825;SDS011;52586;-43.152;172.732;2022-09-30T12:51:22;3.10;;;2.30;;
65825;SDS011;52586;-43.152;172.732;2022-09-30T12:53:58;3.92;;;2.67;;
65825;SDS011;52586;-43.152;172.732;2022-09-30T12:56:33;3.38;;;2.45;;
65825;SDS011;52586;-43.152;172.732;2022-09-30T12:59:11;4.30;;;2.92;;
65825;SDS011;52586;-43.152;172.732;2022-09-30T13:01:45;3.45;;;2.53;;
65825;SDS011;52586;-43.152;172.732;2022-09-30T13:04:17;3.70;;;2.55;;
65825;SDS011;52586;-43.152;172.732;2022-09-30T13:09:57;4.25;;;2.45;;
65825;SDS011;52586;-43.152;172.732;2022-09-30T13:12:47;4.22;;;2.70;;
65825;SDS011;52586;-43.152;172.732;2022-09-30T13:15:39;3.40;;;2.40;;
65825;SDS011;52586;-43.152;172.732;2022-09-30T13:21:19;3.25;;;2.45;;
65825;SDS011;52586;-43.152;172.732;2022-09-30T13:23:53;3.20;;;2.50;;
65825;SDS011;52586;-43.152;172.732;2022-09-30T13:26:32;3.28;;;2.45;;
65825;SDS011;52586;-43.152;172.732;2022-09-30T13:29:35;2.83;;;2.25;;
65825;SDS011;52586;-43.152;172.732;2022-09-30T13:35:11;3.78;;;2.60;;
65825;SDS011;52586;-43.152;172.732;2022-09-30T13:38:19;5.15;;;2.75;;
65825;SDS011;52586;-43.152;172.732;2022-09-30T13:41:01;3.35;;;2.30;;
65825;SDS011;52586;-43.152;172.732;2022-09-30T13:43:42;2.83;;;2.15;;
65825;SDS011;52586;-43.152;172.732;2022-09-30T13:46:21;3.85;;;2.20;;
65825;SDS011;52586;-43.152;172.732;2022-09-30T13:48:59;3.55;;;2.45;;
65825;SDS011;52586;-43.152;172.732;2022-09-30T13:51:33;3.38;;;2.33;;
65825;SDS011;52586;-43.152;172.732;2022-09-30T13:54:05;2.10;;;1.90;;
65825;SDS011;52586;-43.152;172.732;2022-09-30T13:56:40;2.88;;;2.25;;
65825;SDS011;52586;-43.152;172.732;2022-09-30T14:05:34;2.72;;;2.00;;
65825;SDS011;52586;-43.152;172.732;2022-09-30T14:11:38;3.67;;;2.50;;
65825;SDS011;52586;-43.152;172.732;2022-09-30T14:17:39;3.08;;;2.30;;
65825;SDS011;52586;-43.152;172.732;2022-09-30T14:20:28;2.20;;;2.00;;
65825;SDS011;52586;-43.152;172.732;2022-09-30T14:23:12;2.50;;;1.80;;
65825;SDS011;52586;-43.152;172.732;2022-09-30T14:25:46;2.50;;;1.85;;
65825;SDS011;52586;-43.152;172.732;2022-09-30T14:28:25;2.17;;;1.98;;
65825;SDS011;52586;-43.152;172.732;2022-09-30T14:31:02;2.60;;;1.95;;
65825;SDS011;52586;-43.152;172.732;2022-09-30T14:33:38;2.33;;;1.83;;
65825;SDS011;52586;-43.152;172.732;2022-09-30T14:36:13;2.33;;;1.98;;
65825;SDS011;52586;-43.152;172.732;2022-09-30T14:38:47;3.50;;;2.00;;
65825;SDS011;52586;-43.152;172.732;2022-09-30T14:41:21;3.40;;;2.10;;
65825;SDS011;52586;-43.152;172.732;2022-09-30T14:43:54;2.22;;;2.00;;
65825;SDS011;52586;-43.152;172.732;2022-09-30T14:46:32;2.85;;;2.15;;
65825;SDS011;52586;-43.152;172.732;2022-09-30T14:49:06;3.35;;;2.17;;
65825;SDS011;52586;-43.152;172.732;2022-09-30T14:51:44;3.13;;;1.85;;
65825;SDS011;52586;-43.152;172.732;2022-09-30T14:54:17;2.72;;;2.10;;
65825;SDS011;52586;-43.152;172.732;2022-09-30T14:56:49;2.85;;;2.05;;
65825;SDS011;52586;-43.152;172.732;2022-09-30T14:59:20;3.90;;;2.10;;
65825;SDS011;52586;-43.152;172.732;2022-09-30T15:01:53;3.30;;;2.08;;
65825;SDS011;52586;-43.152;172.732;2022-09-30T15:04:27;3.08;;;2.13;;
65825;SDS011;52586;-43.152;172.732;2022-09-30T15:07:00;2.60;;;2.13;;
65825;SDS011;52586;-43.152;172.732;2022-09-30T15:09:33;2.33;;;2.00;;
65825;SDS011;52586;-43.152;172.732;2022-09-30T15:12:05;2.80;;;1.90;;
65825;SDS011;52586;-43.152;172.732;2022-09-30T15:14:44;2.38;;;1.95;;
65825;SDS011;52586;-43.152;172.732;2022-09-30T15:17:16;2.35;;;1.85;;
65825;SDS011;52586;-43.152;172.732;2022-09-30T15:19:48;2.35;;;1.90;;
65825;SDS011;52586;-43.152;172.732;2022-09-30T15:22:23;2.88;;;1.90;;
65825;SDS011;52586;-43.152;172.732;2022-09-30T15:24:55;2.83;;;1.95;;
65825;SDS011;52586;-43.152;172.732;2022-09-30T15:27:27;3.05;;;2.15;;
65825;SDS011;52586;-43.152;172.732;2022-09-30T15:30:03;2.88;;;1.70;;
65825;SDS011;52586;-43.152;172.732;2022-09-30T15:32:55;2.10;;;1.40;;
65825;SDS011;52586;-43.152;172.732;2022-09-30T15:35:27;2.20;;;1.85;;